Time;durP1;ratioP1;P1;durP2;ratioP2;P2;SDS_P1;SDS_P2;PMS_P1;PMS_P2;Temp;Humidity;BMP_temperature;BMP_pressure;BME280_temperature;BME280_humidity;BME280_pressure;Samples;Min_cycle;Max_cycle;Signal;HPM_P1;HPM_P2
2023/08/05 00:00:12;;;;;;;;;2.00;2.00;;;;;26.43;39.83;101736.53;5035153;27;45356;-69
2023/08/05 00:02:37;;;;;;;;;2.67;2.67;;;;;26.43;39.70;101734.69;5034834;28;45352;-69
2023/08/05 00:05:03;;;;;;;;;3.00;3.00;;;;;26.45;39.89;101723.84;5034692;28;45224;-69
2023/08/05 00:07:29;;;;;;;;;2.00;2.00;;;;;26.45;39.63;101699.81;5034937;28;45342;-69
2023/08/05 00:09:54;;;;;;;;;2.00;2.00;;;;;26.43;39.75;101681.31;5034654;28;45475;-69
2023/08/05 00:12:20;;;;;;;;;3.00;3.00;;;;;26.44;39.90;101669.66;5034223;28;46215;-69
2023/08/05 00:14:46;;;;;;;;;3.00;3.00;;;;;26.43;40.16;101675.97;5034787;28;45346;-69
2023/08/05 00:17:12;;;;;;;;;3.33;2.33;;;;;26.45;39.92;101695.31;5034742;28;45262;-69
2023/08/05 00:19:37;;;;;;;;;3.00;3.00;;;;;26.46;39.82;101709.50;5034332;28;45317;-69
2023/08/05 00:22:03;;;;;;;;;2.00;2.00;;;;;26.46;39.73;101710.31;5033685;28;45330;-69
2023/08/05 00:24:28;;;;;;;;;3.00;3.00;;;;;26.47;40.11;101708.47;5034650;28;45319;-69
2023/08/05 00:26:53;;;;;;;;;4.00;3.00;;;;;26.45;39.88;101714.00;5033071;28;45381;-69
2023/08/05 00:29:18;;;;;;;;;2.00;2.00;;;;;26.45;39.85;101710.50;5034319;28;45642;-69
2023/08/05 00:31:44;;;;;;;;;4.33;1.67;;;;;26.45;40.39;101722.00;5034241;28;48705;-69
2023/08/05 00:34:09;;;;;;;;;2.00;2.00;;;;;26.45;40.47;101721.16;5034332;28;45392;-69
2023/08/05 00:36:34;;;;;;;;;1.67;1.67;;;;;26.45;40.43;101713.16;5034524;28;45375;-69
2023/08/05 00:39:00;;;;;;;;;3.00;3.00;;;;;26.46;40.55;101712.16;5016707;28;45423;-69
2023/08/05 00:41:25;;;;;;;;;3.00;3.00;;;;;26.43;40.65;101710.66;5033850;28;47129;-69
2023/08/05 00:43:50;;;;;;;;;3.00;3.00;;;;;26.45;39.98;101695.31;5035314;27;45273;-69
2023/08/05 00:46:16;;;;;;;;;3.00;2.67;;;;;26.42;40.38;101682.31;5034384;28;45625;-69
2023/08/05 00:48:42;;;;;;;;;2.00;2.00;;;;;26.45;39.90;101667.81;5034301;28;45549;-70
2023/08/05 00:51:08;;;;;;;;;2.00;2.00;;;;;26.44;40.12;101680.31;5034130;28;45340;-69
2023/08/05 00:53:35;;;;;;;;;2.33;1.00;;;;;26.45;40.28;101678.47;5033978;28;45429;-68
2023/08/05 00:56:01;;;;;;;;;2.00;2.00;;;;;26.47;40.41;101690.63;5033947;28;45977;-69
2023/08/05 00:58:28;;;;;;;;;5.00;3.00;;;;;26.48;40.33;101689.63;5103261;27;45390;-69
2023/08/05 01:00:54;;;;;;;;;2.00;2.00;;;;;26.48;40.19;101678.09;5033955;28;46204;-69
2023/08/05 01:03:19;;;;;;;;;3.00;2.00;;;;;26.49;40.62;101677.91;5033865;28;45442;-69
2023/08/05 01:05:48;;;;;;;;;2.00;2.00;;;;;26.48;40.25;101670.94;5034175;28;45324;-69
2023/08/05 01:08:14;;;;;;;;;4.00;3.00;;;;;26.49;39.81;101661.09;5033860;28;45228;-69
2023/08/05 01:10:39;;;;;;;;;2.00;1.33;;;;;26.47;40.60;101647.09;5033643;28;45225;-69
2023/08/05 01:13:04;;;;;;;;;2.00;2.00;;;;;26.48;40.46;101646.91;5033617;28;55086;-69
2023/08/05 01:15:30;;;;;;;;;1.67;1.67;;;;;26.50;39.93;101646.72;5033963;28;45235;-69
2023/08/05 01:17:57;;;;;;;;;2.67;2.67;;;;;26.51;40.03;101657.22;5033933;28;45185;-69
2023/08/05 01:20:32;;;;;;;;;2.33;2.33;;;;;26.48;40.56;101654.94;5033926;28;45473;-69
2023/08/05 01:23:07;;;;;;;;;2.00;2.00;;;;;26.50;40.45;101662.72;5033733;28;45322;-69
2023/08/05 01:25:34;;;;;;;;;4.67;3.00;;;;;26.50;40.13;101658.22;5033588;28;45327;-69
2023/08/05 01:28:01;;;;;;;;;2.00;2.00;;;;;26.48;40.50;101640.75;5033319;28;45605;-69
2023/08/05 01:30:28;;;;;;;;;1.00;1.00;;;;;26.49;40.27;101632.53;5033609;28;47229;-69
2023/08/05 01:32:55;;;;;;;;;2.00;2.00;;;;;26.49;39.94;101627.22;5033103;28;45410;-69
2023/08/05 01:35:22;;;;;;;;;2.00;2.00;;;;;26.43;40.60;101617.28;5033824;28;45499;-69
2023/08/05 01:37:47;;;;;;;;;2.00;2.00;;;;;26.49;40.73;101632.53;5033496;28;45561;-69
2023/08/05 01:40:13;;;;;;;;;4.00;2.00;;;;;26.50;40.26;101636.03;5033211;28;46092;-69
2023/08/05 01:42:38;;;;;;;;;2.67;2.67;;;;;26.51;40.61;101635.03;5033660;28;45352;-69
2023/08/05 01:45:04;;;;;;;;;3.33;3.00;;;;;26.49;40.22;101627.22;5015489;28;45336;-69
2023/08/05 01:47:30;;;;;;;;;3.00;2.00;;;;;26.48;40.69;101614.91;5033639;28;45324;-69
2023/08/05 01:49:55;;;;;;;;;2.00;2.00;;;;;26.47;40.43;101613.25;5033172;28;46184;-69
2023/08/05 01:52:20;;;;;;;;;2.00;2.00;;;;;26.47;40.36;101612.41;5033230;28;45302;-69
2023/08/05 01:54:45;;;;;;;;;3.00;2.00;;;;;26.46;40.12;101610.78;5033393;28;45487;-69
2023/08/05 01:57:11;;;;;;;;;2.00;2.00;;;;;26.48;40.29;101622.06;5033557;27;45291;-69
2023/08/05 01:59:36;;;;;;;;;1.67;1.67;;;;;26.48;40.23;101627.41;5033301;28;48472;-69
2023/08/05 02:02:01;;;;;;;;;2.33;2.33;;;;;26.48;40.61;101624.75;5033101;28;45300;-70
2023/08/05 02:04:27;;;;;;;;;4.00;2.00;;;;;26.48;40.30;101628.25;5016056;27;45390;-70
2023/08/05 02:06:52;;;;;;;;;1.33;1.33;;;;;26.50;40.69;101625.38;5033428;28;45291;-69
2023/08/05 02:09:17;;;;;;;;;2.67;2.67;;;;;26.51;40.08;101619.84;5032883;27;45511;-69
2023/08/05 02:11:42;;;;;;;;;2.67;2.00;;;;;26.51;40.75;101613.69;5033108;28;45387;-69
2023/08/05 02:14:08;;;;;;;;;2.00;2.00;;;;;26.52;40.75;101615.31;5033449;28;45388;-69
2023/08/05 02:16:33;;;;;;;;;2.00;2.00;;;;;26.51;40.21;101616.34;5033284;28;45212;-69
2023/08/05 02:18:59;;;;;;;;;1.33;1.33;;;;;26.51;40.39;101614.53;5032696;27;46360;-69
2023/08/05 02:21:24;;;;;;;;;5.00;3.00;;;;;26.52;40.61;101618.00;5032946;28;45365;-69
2023/08/05 02:23:50;;;;;;;;;3.00;3.00;;;;;26.52;40.43;101612.66;5031634;28;45386;-69
2023/08/05 02:26:16;;;;;;;;;3.00;1.67;;;;;26.52;40.61;101616.16;5033124;28;45226;-69
2023/08/05 02:28:41;;;;;;;;;2.33;2.00;;;;;26.51;40.15;101617.19;5033015;28;45417;-70
2023/08/05 02:31:07;;;;;;;;;2.00;2.00;;;;;26.52;40.83;101610.00;5033042;28;45326;-70
2023/08/05 02:33:32;;;;;;;;;2.00;2.00;;;;;26.51;40.59;101600.34;5033102;28;45755;-69
2023/08/05 02:36:00;;;;;;;;;3.00;3.00;;;;;26.52;40.32;101589.47;5032744;28;50858;-69
2023/08/05 02:38:26;;;;;;;;;3.33;3.00;;;;;26.53;40.75;101571.63;5032441;28;45368;-69
2023/08/05 02:40:52;;;;;;;;;1.00;1.00;;;;;26.52;40.77;101559.28;5032734;28;45456;-69
2023/08/05 02:43:17;;;;;;;;;2.00;2.00;;;;;26.52;40.39;101560.13;5032166;28;45365;-69
2023/08/05 02:45:43;;;;;;;;;1.33;1.33;;;;;26.50;40.45;101562.16;5014956;28;45370;-70
2023/08/05 02:48:08;;;;;;;;;2.67;2.33;;;;;26.51;40.51;101563.00;5032645;28;45852;-70
2023/08/05 02:50:33;;;;;;;;;2.67;2.67;;;;;26.50;40.69;101564.00;5032646;28;45280;-69
2023/08/05 02:52:59;;;;;;;;;1.00;1.00;;;;;26.50;40.81;101567.50;5032534;28;45464;-70
2023/08/05 02:55:24;;;;;;;;;5.00;3.33;;;;;26.50;40.67;101567.50;5032834;28;45397;-69
2023/08/05 02:57:49;;;;;;;;;2.67;2.67;;;;;26.50;40.73;101564.84;5032492;28;46154;-69
2023/08/05 03:00:15;;;;;;;;;2.00;1.00;;;;;26.50;41.05;101553.31;5032614;27;45394;-69
2023/08/05 03:02:40;;;;;;;;;1.33;1.33;;;;;26.51;40.69;101545.16;5032543;28;45333;-69
2023/08/05 03:05:06;;;;;;;;;2.67;1.00;;;;;26.49;40.70;101541.81;5032661;28;45404;-69
2023/08/05 03:07:31;;;;;;;;;2.00;2.00;;;;;26.50;40.16;101553.31;5032137;28;45563;-69
2023/08/05 03:09:56;;;;;;;;;0.67;0.67;;;;;26.50;40.84;101534.66;5032318;27;45400;-69
2023/08/05 03:12:22;;;;;;;;;1.67;1.67;;;;;26.50;40.33;101527.47;5032241;28;45460;-69
2023/08/05 03:14:47;;;;;;;;;3.00;3.00;;;;;26.52;40.55;101516.59;5032496;28;45334;-69
2023/08/05 03:17:13;;;;;;;;;2.00;2.00;;;;;26.52;40.73;101519.25;5032211;28;45442;-69
2023/08/05 03:19:38;;;;;;;;;2.00;2.00;;;;;26.52;40.44;101516.59;5032148;28;45396;-69
2023/08/05 03:22:03;;;;;;;;;2.00;2.00;;;;;26.52;40.75;101503.25;5031941;28;45372;-70
2023/08/05 03:24:29;;;;;;;;;2.67;2.00;;;;;26.52;40.61;101508.59;5032286;28;45339;-69
2023/08/05 03:26:54;;;;;;;;;2.00;1.00;;;;;26.52;40.69;101501.41;5032213;28;45277;-69
2023/08/05 03:29:20;;;;;;;;;2.00;2.00;;;;;26.50;40.46;101487.44;5015895;27;45570;-69
2023/08/05 03:31:45;;;;;;;;;1.00;1.00;;;;;26.51;41.01;101493.63;5032210;28;45300;-69
2023/08/05 03:34:10;;;;;;;;;2.00;2.00;;;;;26.51;40.34;101490.94;5032075;28;45429;-69
2023/08/05 03:36:36;;;;;;;;;3.00;1.00;;;;;26.50;40.70;101486.63;5031735;28;45630;-69
2023/08/05 03:39:02;;;;;;;;;2.00;2.00;;;;;26.49;40.91;101480.44;5031865;28;45488;-70
2023/08/05 03:41:27;;;;;;;;;1.00;1.00;;;;;26.50;40.27;101491.97;5031967;28;45341;-69
2023/08/05 03:43:52;;;;;;;;;5.67;2.33;;;;;26.50;40.97;101473.28;5031987;28;45251;-69
2023/08/05 03:46:18;;;;;;;;;2.00;1.33;;;;;26.49;40.99;101474.31;5031854;28;45287;-69
2023/08/05 03:48:44;;;;;;;;;2.00;2.00;;;;;26.51;40.48;101475.78;5031138;28;48013;-68
2023/08/05 03:51:09;;;;;;;;;3.00;2.00;;;;;26.51;40.26;101470.44;5031927;28;45390;-69
2023/08/05 03:53:35;;;;;;;;;1.67;1.67;;;;;26.53;40.31;101472.91;5031720;28;45530;-69
2023/08/05 03:56:01;;;;;;;;;2.67;2.00;;;;;26.52;40.17;101482.75;5032848;28;46169;-69
2023/08/05 03:58:26;;;;;;;;;2.33;2.00;;;;;26.53;40.15;101467.56;5034861;28;45188;-69
2023/08/05 04:00:51;;;;;;;;;1.67;1.67;;;;;26.52;40.29;101452.56;5034876;28;45280;-69
2023/08/05 04:03:17;;;;;;;;;2.00;2.00;;;;;26.52;40.13;101455.22;5033884;28;45373;-69
2023/08/05 04:05:43;;;;;;;;;3.00;3.00;;;;;26.54;40.81;101452.38;5034727;28;45955;-69
2023/08/05 04:08:08;;;;;;;;;0.67;0.67;;;;;26.53;40.55;101438.22;5034620;28;45315;-69
2023/08/05 04:10:35;;;;;;;;;1.33;1.33;;;;;26.51;40.45;101441.09;5035002;28;45350;-69
2023/08/05 04:13:03;;;;;;;;;1.00;1.00;;;;;26.51;40.82;101440.25;5034756;28;45517;-69
2023/08/05 04:15:30;;;;;;;;;1.00;1.00;;;;;26.53;40.75;101435.53;5034496;28;46501;-69
2023/08/05 04:17:59;;;;;;;;;2.00;2.00;;;;;26.53;40.75;101435.53;5033132;28;45347;-69
2023/08/05 04:20:27;;;;;;;;;2.00;2.00;;;;;26.52;40.90;101433.88;5034722;28;45413;-69
2023/08/05 04:22:52;;;;;;;;;1.00;1.00;;;;;26.52;40.22;101433.88;5034603;28;45358;-69
2023/08/05 04:25:18;;;;;;;;;2.00;2.00;;;;;26.52;40.57;101413.38;5034389;28;46202;-69
2023/08/05 04:27:43;;;;;;;;;4.00;2.00;;;;;26.52;40.66;101416.03;5033960;28;56622;-69
2023/08/05 04:30:09;;;;;;;;;1.67;1.67;;;;;26.54;40.42;101413.19;5034742;28;45345;-69
2023/08/05 04:32:34;;;;;;;;;2.00;2.00;;;;;26.53;40.83;101408.84;5034271;28;45173;-69
2023/08/05 04:34:59;;;;;;;;;2.67;1.00;;;;;26.52;40.43;101402.69;5034444;28;47043;-69
2023/08/05 04:37:26;;;;;;;;;2.00;2.00;;;;;26.53;40.79;101395.50;5034142;28;48879;-69
2023/08/05 04:39:52;;;;;;;;;2.00;2.00;;;;;26.53;40.87;101392.84;5034539;28;45328;-69
2023/08/05 04:42:18;;;;;;;;;2.00;2.00;;;;;26.54;40.36;101381.16;5034255;28;45276;-69
2023/08/05 04:44:43;;;;;;;;;2.00;2.00;;;;;26.52;40.35;101381.34;5034292;28;45413;-70
2023/08/05 04:47:10;;;;;;;;;4.00;1.33;;;;;26.54;40.82;101385.66;5033838;28;45364;-69
2023/08/05 04:49:35;;;;;;;;;4.00;1.67;;;;;26.52;40.44;101381.34;5034281;28;45376;-69
2023/08/05 04:52:06;;;;;;;;;1.00;1.00;;;;;26.54;40.39;101375.00;5016208;28;45408;-69
2023/08/05 04:54:43;;;;;;;;;3.00;1.00;;;;;26.53;40.65;101382.16;5034203;28;47082;-69
2023/08/05 04:57:08;;;;;;;;;2.00;2.00;;;;;26.52;40.97;101372.50;5033968;28;45367;-69
2023/08/05 04:59:34;;;;;;;;;1.33;1.33;;;;;26.51;40.32;101376.22;5034312;28;45257;-69
2023/08/05 05:01:59;;;;;;;;;2.00;1.67;;;;;26.52;40.50;101384.00;5033920;27;45385;-69
2023/08/05 05:04:24;;;;;;;;;1.00;1.00;;;;;26.52;40.96;101373.34;5034113;28;46330;-69
2023/08/05 05:06:50;;;;;;;;;2.00;0.67;;;;;26.54;41.05;101372.31;5033664;28;45338;-70
2023/08/05 05:09:15;;;;;;;;;2.00;2.00;;;;;26.54;41.04;101367.00;5034006;28;45732;-69
2023/08/05 05:11:41;;;;;;;;;1.00;1.00;;;;;26.53;40.44;101352.81;5034144;28;45381;-70
2023/08/05 05:14:06;;;;;;;;;1.33;1.33;;;;;26.55;40.46;101347.28;5033803;28;46290;-69
2023/08/05 05:16:32;;;;;;;;;1.33;1.33;;;;;26.55;40.45;101352.59;5033820;28;45377;-69
2023/08/05 05:18:57;;;;;;;;;0.67;0.67;;;;;26.54;40.85;101351.81;5033933;28;45537;-69
2023/08/05 05:21:23;;;;;;;;;1.00;1.00;;;;;26.53;40.92;101344.81;5033934;28;45378;-69
2023/08/05 05:23:48;;;;;;;;;2.00;2.00;;;;;26.52;41.03;101338.66;5033323;28;46318;-69
2023/08/05 05:26:13;;;;;;;;;1.67;1.00;;;;;26.54;41.00;101329.63;5033651;28;45469;-69
2023/08/05 05:28:39;;;;;;;;;2.00;2.00;;;;;26.52;40.58;101327.16;5033938;28;45324;-69
2023/08/05 05:31:04;;;;;;;;;3.00;2.00;;;;;26.54;40.46;101333.13;5033524;28;45409;-70
2023/08/05 05:33:29;;;;;;;;;2.00;2.00;;;;;26.54;40.81;101334.97;5033715;28;46959;-69
2023/08/05 05:35:55;;;;;;;;;2.00;2.00;;;;;26.54;40.89;101334.97;5033853;28;45398;-69
2023/08/05 05:38:20;;;;;;;;;2.67;2.67;;;;;26.53;40.57;101336.81;5033724;28;45428;-69
2023/08/05 05:40:45;;;;;;;;;2.00;2.00;;;;;26.54;40.83;101318.97;5033673;28;45331;-69
2023/08/05 05:43:11;;;;;;;;;2.00;2.00;;;;;26.53;41.03;101315.47;5033610;28;45292;-69
2023/08/05 05:45:36;;;;;;;;;1.67;1.67;;;;;26.54;40.62;101322.47;5033301;28;45431;-69
2023/08/05 05:48:02;;;;;;;;;2.67;1.00;;;;;26.55;40.40;101321.41;5032680;28;45335;-69
2023/08/05 05:50:28;;;;;;;;;2.00;2.00;;;;;26.54;40.95;101314.47;5033592;28;45276;-69
2023/08/05 05:52:54;;;;;;;;;2.00;2.00;;;;;26.55;40.51;101309.91;5033272;28;46002;-69
2023/08/05 05:55:20;;;;;;;;;2.00;2.00;;;;;26.56;40.99;101314.25;5033465;28;45967;-69
2023/08/05 05:57:45;;;;;;;;;1.00;1.00;;;;;26.54;40.86;101314.47;5033566;28;45363;-69
2023/08/05 06:00:12;;;;;;;;;1.33;1.33;;;;;26.57;40.81;101322.03;5033103;28;45665;-69
2023/08/05 06:02:37;;;;;;;;;2.00;1.00;;;;;26.57;40.88;101316.69;5033123;28;46322;-69
2023/08/05 06:05:03;;;;;;;;;5.00;2.00;;;;;26.58;40.51;101305.03;5033340;28;45381;-69
2023/08/05 06:07:28;;;;;;;;;2.67;2.00;;;;;26.59;40.48;101301.34;5033436;28;45262;-69
2023/08/05 06:09:53;;;;;;;;;3.00;1.67;;;;;26.59;40.61;101305.84;5033089;27;46585;-69
2023/08/05 06:12:19;;;;;;;;;1.33;1.33;;;;;26.59;41.08;101312.00;5033270;28;45994;-69
2023/08/05 06:14:44;;;;;;;;;1.00;1.00;;;;;26.59;40.64;101317.34;5032830;28;45395;-69
2023/08/05 06:17:09;;;;;;;;;1.33;1.00;;;;;26.60;40.91;101326.16;5026551;28;45326;-73
2023/08/05 06:19:35;;;;;;;;;1.00;1.00;;;;;26.58;40.80;101326.38;5090499;27;45546;-71
2023/08/05 06:22:00;;;;;;;;;2.00;2.00;;;;;26.60;40.75;101331.50;5137076;27;46140;-70
2023/08/05 06:24:25;;;;;;;;;1.00;1.00;;;;;26.60;41.06;101326.16;5138045;27;45254;-69
2023/08/05 06:26:51;;;;;;;;;2.00;2.00;;;;;26.62;40.78;101316.13;5138156;27;45225;-70
2023/08/05 06:29:16;;;;;;;;;2.00;1.00;;;;;26.60;41.19;101302.97;5137831;27;45341;-70
2023/08/05 06:31:41;;;;;;;;;1.67;1.67;;;;;26.62;40.63;101314.25;5137908;27;47052;-70
2023/08/05 06:34:06;;;;;;;;;3.00;1.67;;;;;26.59;40.67;101306.69;5137885;27;45626;-70
2023/08/05 06:36:32;;;;;;;;;3.00;1.33;;;;;26.63;40.65;101307.91;5137783;27;45365;-70
2023/08/05 06:38:57;;;;;;;;;2.00;2.00;;;;;26.63;40.38;101302.56;5137725;27;45332;-71
2023/08/05 06:41:23;;;;;;;;;2.67;2.67;;;;;26.58;40.39;101291.69;5137341;27;46051;-70
2023/08/05 06:43:50;;;;;;;;;2.00;2.00;;;;;26.56;40.48;101287.56;5137391;27;45336;-70
2023/08/05 06:46:15;;;;;;;;;1.00;1.00;;;;;26.55;40.78;101296.56;5137973;27;45382;-69
2023/08/05 06:48:41;;;;;;;;;2.00;2.00;;;;;26.54;40.50;101287.78;5137815;27;45412;-69
2023/08/05 06:51:06;;;;;;;;;3.67;2.67;;;;;26.54;40.56;101300.28;5137514;27;45993;-71
2023/08/05 06:53:32;;;;;;;;;1.67;1.00;;;;;26.54;40.65;101298.44;5068616;27;45319;-70
2023/08/05 06:56:01;;;;;;;;;1.67;1.67;;;;;26.52;40.52;101293.28;5101838;27;45387;-72
2023/08/05 06:58:27;;;;;;;;;2.00;2.00;;;;;26.54;40.66;101298.44;5032354;28;45403;-71
2023/08/05 07:00:52;;;;;;;;;1.00;1.00;;;;;26.55;40.08;101309.91;5032465;28;45473;-70
2023/08/05 07:03:18;;;;;;;;;2.33;2.33;;;;;26.55;40.41;101316.09;5032293;28;45302;-71
2023/08/05 07:05:43;;;;;;;;;2.33;2.00;;;;;26.55;40.72;101310.75;5032600;28;45325;-71
2023/08/05 07:08:08;;;;;;;;;4.00;3.33;;;;;26.57;40.32;101318.56;5028880;27;49794;-71
2023/08/05 07:10:33;;;;;;;;;2.33;2.00;;;;;26.58;40.75;101323.69;5024554;27;47122;-69
2023/08/05 07:13:02;;;;;;;;;6.00;4.00;;;;;26.59;41.37;101320.00;5011566;27;45368;-70
2023/08/05 07:15:27;;;;;;;;;6.33;4.00;;;;;26.62;41.09;101311.59;5012409;27;45276;-71
2023/08/05 07:17:52;;;;;;;;;4.67;3.67;;;;;26.62;41.69;101295.56;5011904;28;45267;-71
2023/08/05 07:20:18;;;;;;;;;3.00;3.00;;;;;26.64;41.88;101298.06;5012343;28;46498;-69
2023/08/05 07:22:43;;;;;;;;;6.67;4.00;;;;;26.63;41.69;101291.91;5012272;28;45341;-71
2023/08/05 07:25:08;;;;;;;;;4.00;3.00;;;;;26.62;41.42;101282.22;5012485;27;45379;-69
2023/08/05 07:27:34;;;;;;;;;7.67;3.00;;;;;26.65;42.11;101274.88;5012061;28;45358;-69
2023/08/05 07:29:59;;;;;;;;;5.00;3.00;;;;;26.66;42.01;101268.50;5013269;28;46630;-69
2023/08/05 07:32:24;;;;;;;;;2.67;2.67;;;;;26.67;41.53;101264.81;5015290;28;45267;-69
2023/08/05 07:34:54;;;;;;;;;3.33;2.00;;;;;26.67;41.75;101249.63;5015516;28;45271;-69
2023/08/05 07:37:19;;;;;;;;;5.67;3.33;;;;;26.68;41.89;101253.91;5015236;28;45557;-69
2023/08/05 07:39:48;;;;;;;;;3.00;3.00;;;;;26.68;41.63;101240.56;5015015;28;46058;-69
2023/08/05 07:42:19;;;;;;;;;3.33;3.33;;;;;26.67;41.77;101238.13;5014807;28;45421;-69
2023/08/05 07:44:46;;;;;;;;;3.00;3.00;;;;;26.68;41.81;101240.56;5015220;28;45374;-70
2023/08/05 07:47:11;;;;;;;;;4.67;2.00;;;;;26.68;42.17;101229.06;5015241;28;45407;-69
2023/08/05 07:49:37;;;;;;;;;3.00;3.00;;;;;26.69;42.22;101226.22;5015011;28;46843;-69
2023/08/05 07:52:04;;;;;;;;;5.00;3.33;;;;;26.70;41.96;101209.16;5021972;28;45454;-69
2023/08/05 07:54:30;;;;;;;;;3.33;2.00;;;;;26.70;41.88;101195.03;5035085;28;45287;-69
2023/08/05 07:56:57;;;;;;;;;3.00;3.00;;;;;26.68;42.01;101183.72;5034691;28;45419;-69
2023/08/05 07:59:24;;;;;;;;;5.00;2.67;;;;;26.71;41.87;101180.63;5034804;28;47077;-68
2023/08/05 08:01:52;;;;;;;;;4.33;3.67;;;;;26.70;41.87;101176.34;5034769;28;45252;-68
2023/08/05 08:04:18;;;;;;;;;6.67;3.33;;;;;26.71;42.44;101185.97;5034848;28;45436;-69
2023/08/05 08:06:45;;;;;;;;;2.33;2.00;;;;;26.72;42.37;101183.13;5035054;28;45354;-69
2023/08/05 08:09:10;;;;;;;;;5.00;4.00;;;;;26.73;41.91;101184.75;5034504;27;46952;-69
2023/08/05 08:11:36;;;;;;;;;3.00;3.00;;;;;26.72;42.16;101183.13;5034218;28;45374;-68
2023/08/05 08:14:02;;;;;;;;;5.00;5.00;;;;;26.76;42.34;101180.84;5034517;28;47027;-69
2023/08/05 08:16:28;;;;;;;;;5.67;3.00;;;;;26.78;42.16;101175.31;5034777;28;45527;-69
2023/08/05 08:18:53;;;;;;;;;3.00;3.00;;;;;26.80;42.41;101162.59;5034311;28;45837;-69
2023/08/05 08:21:18;;;;;;;;;3.33;1.67;;;;;26.79;42.21;101147.59;5034495;28;45439;-69
2023/08/05 08:23:44;;;;;;;;;3.33;3.33;;;;;26.83;42.23;101148.81;5034473;28;45461;-69
2023/08/05 08:26:09;;;;;;;;;3.00;3.00;;;;;26.84;41.86;101153.94;5034261;28;45465;-69
2023/08/05 08:28:34;;;;;;;;;4.00;4.00;;;;;26.85;41.62;101149.44;5034591;27;46058;-69
2023/08/05 08:31:00;;;;;;;;;2.67;2.67;;;;;26.84;42.06;101156.63;5034521;28;45303;-69
2023/08/05 08:33:26;;;;;;;;;3.33;3.33;;;;;26.85;41.73;101144.91;5033575;28;45489;-69
2023/08/05 08:35:52;;;;;;;;;2.00;2.00;;;;;26.85;42.01;101142.22;5034646;28;45333;-69
2023/08/05 08:38:18;;;;;;;;;2.00;2.00;;;;;26.88;41.41;101148.22;5034147;28;45345;-69
2023/08/05 08:40:48;;;;;;;;;5.00;3.00;;;;;26.88;41.53;101137.53;5033854;27;45266;-69
2023/08/05 08:43:21;;;;;;;;;5.00;3.00;;;;;26.88;41.69;101118.84;5033936;28;45261;-69
2023/08/05 08:45:49;;;;;;;;;5.00;3.67;;;;;26.85;41.55;101107.53;5016488;28;45576;-68
2023/08/05 08:48:15;;;;;;;;;4.00;2.33;;;;;26.88;41.40;101119.63;5034030;28;46110;-69
2023/08/05 08:50:42;;;;;;;;;3.33;3.33;;;;;26.87;41.49;101107.34;5034228;28;45394;-68
2023/08/05 08:53:12;;;;;;;;;5.67;2.00;;;;;26.85;41.57;101088.84;5034178;28;45398;-69
2023/08/05 08:55:37;;;;;;;;;2.33;2.00;;;;;26.85;41.82;101096.06;5034254;28;45471;-69
2023/08/05 08:58:03;;;;;;;;;4.33;3.00;;;;;26.87;42.03;101087.81;5033904;28;46073;-69
2023/08/05 09:00:30;;;;;;;;;3.33;2.00;;;;;26.86;41.55;101079.00;5034034;28;45238;-69
2023/08/05 09:02:56;;;;;;;;;5.67;3.67;;;;;26.87;41.53;101075.31;5034001;28;45341;-68
2023/08/05 09:05:21;;;;;;;;;4.00;1.33;;;;;26.86;41.46;101065.66;5034117;28;45339;-69
2023/08/05 09:07:49;;;;;;;;;3.00;3.00;;;;;26.85;41.87;101054.13;5033551;28;46105;-69
2023/08/05 09:10:14;;;;;;;;;2.67;2.67;;;;;26.85;41.64;101048.00;5033852;28;45363;-68
2023/08/05 09:12:40;;;;;;;;;2.00;2.00;;;;;26.85;41.57;101046.13;5034215;28;45314;-69
2023/08/05 09:15:05;;;;;;;;;3.00;2.00;;;;;26.85;41.65;101051.47;5034033;28;45364;-69
2023/08/05 09:17:39;;;;;;;;;3.00;3.00;;;;;26.85;41.98;101042.66;5033619;28;45362;-68
2023/08/05 09:20:12;;;;;;;;;3.00;3.00;;;;;26.84;42.09;101035.69;5033991;28;45375;-69
2023/08/05 09:22:37;;;;;;;;;3.00;3.00;;;;;26.84;41.65;101031.16;5033599;28;45361;-69
2023/08/05 09:25:03;;;;;;;;;2.00;2.00;;;;;26.83;42.17;101026.00;5033919;28;45411;-69
2023/08/05 09:27:45;;;;;;;;;3.00;3.00;;;;;26.84;41.44;101025.00;5033540;28;45977;-69
2023/08/05 09:30:17;;;;;;;;;2.00;2.00;;;;;26.83;41.70;101015.34;5033873;28;45400;-68
2023/08/05 09:32:44;;;;;;;;;2.33;1.33;;;;;26.83;41.65;101013.50;5034045;28;45428;-69
2023/08/05 09:35:10;;;;;;;;;2.33;2.33;;;;;26.83;42.10;101008.16;5033750;28;45492;-69
2023/08/05 09:37:38;;;;;;;;;1.67;1.00;;;;;26.82;42.16;100998.53;5033237;28;45257;-69
2023/08/05 09:40:05;;;;;;;;;3.00;3.00;;;;;26.82;41.50;100987.84;5033528;28;45297;-69
2023/08/05 09:42:31;;;;;;;;;2.00;2.00;;;;;26.82;41.95;100992.38;5033716;28;45467;-69
2023/08/05 09:45:01;;;;;;;;;5.33;4.00;;;;;26.81;41.75;100982.69;5033627;28;45215;-69
2023/08/05 09:47:30;;;;;;;;;3.33;2.00;;;;;26.81;41.95;100972.03;5033371;28;46103;-68
2023/08/05 09:49:58;;;;;;;;;3.33;2.00;;;;;26.81;41.54;100972.03;5033395;28;45427;-69
2023/08/05 09:52:26;;;;;;;;;2.67;2.00;;;;;26.81;41.46;100972.84;5032851;28;45401;-69
2023/08/05 09:55:10;;;;;;;;;3.67;3.67;;;;;26.83;41.62;100975.31;5033279;28;45501;-69
2023/08/05 09:57:37;;;;;;;;;2.00;2.00;;;;;26.81;41.90;100954.16;5033130;28;46865;-69
2023/08/05 10:00:13;;;;;;;;;2.00;2.00;;;;;26.80;42.08;100949.88;5033398;28;45345;-69
2023/08/05 10:02:43;;;;;;;;;2.00;2.00;;;;;26.82;42.14;100944.31;5033368;28;45362;-69
2023/08/05 10:05:10;;;;;;;;;1.00;1.00;;;;;26.81;41.51;100948.81;5033190;28;45253;-69
2023/08/05 10:07:40;;;;;;;;;3.00;2.67;;;;;26.81;41.38;100937.31;5032820;28;47164;-69
2023/08/05 10:10:08;;;;;;;;;1.00;1.00;;;;;26.81;41.53;100929.31;5032975;28;45391;-69
2023/08/05 10:12:49;;;;;;;;;3.00;3.00;;;;;26.80;41.74;100914.34;5033351;28;45318;-68
2023/08/05 10:15:22;;;;;;;;;2.00;2.00;;;;;26.79;41.76;100929.53;5033553;28;45222;-69
2023/08/05 10:17:48;;;;;;;;;2.00;2.00;;;;;26.80;41.90;100920.50;5032870;28;45677;-68
2023/08/05 10:20:13;;;;;;;;;4.33;3.67;;;;;26.78;41.72;100913.75;5032897;28;45435;-69
2023/08/05 10:22:40;;;;;;;;;3.00;3.00;;;;;26.79;41.36;100907.38;5032628;28;45403;-68
2023/08/05 10:25:06;;;;;;;;;3.00;2.00;;;;;26.79;41.40;100900.19;5033055;28;45290;-69
2023/08/05 10:27:43;;;;;;;;;2.00;2.00;;;;;26.79;41.78;100896.69;5032843;28;47996;-68
2023/08/05 10:30:16;;;;;;;;;2.67;2.67;;;;;26.80;41.43;100887.66;5032802;28;45409;-69
2023/08/05 10:32:52;;;;;;;;;1.00;1.00;;;;;26.79;41.94;100886.84;5032395;28;45373;-68
2023/08/05 10:35:30;;;;;;;;;2.67;2.00;;;;;26.78;41.46;100881.72;5032627;28;45490;-68
2023/08/05 10:38:16;;;;;;;;;2.33;1.67;;;;;26.77;41.58;100880.91;5032717;28;46137;-68
2023/08/05 10:41:03;;;;;;;;;2.33;2.33;;;;;26.77;41.48;100872.88;5032760;28;45300;-69
2023/08/05 10:43:48;;;;;;;;;4.00;2.00;;;;;26.77;41.51;100869.41;5032746;28;45287;-68
2023/08/05 10:46:14;;;;;;;;;3.00;2.00;;;;;26.77;41.48;100853.38;5032462;28;45579;-69
2023/08/05 10:48:44;;;;;;;;;3.67;2.00;;;;;26.70;41.30;100830.19;5032550;28;47023;-68
2023/08/05 10:51:20;;;;;;;;;2.00;2.00;;;;;26.77;41.49;100837.38;5032248;28;45307;-68
2023/08/05 10:53:51;;;;;;;;;4.00;2.33;;;;;26.78;42.14;100844.34;5012812;28;45433;-69
2023/08/05 10:56:17;;;;;;;;;3.00;2.00;;;;;26.77;41.95;100832.84;5012722;28;45256;-69
2023/08/05 10:58:46;;;;;;;;;2.00;2.00;;;;;26.77;41.58;100824.84;5012595;28;46044;-69
2023/08/05 11:01:12;;;;;;;;;2.00;2.00;;;;;26.78;41.97;100812.34;5012717;28;45504;-69
2023/08/05 11:03:42;;;;;;;;;1.67;1.67;;;;;26.77;41.40;100811.50;5012549;28;45416;-69
2023/08/05 11:06:08;;;;;;;;;4.00;2.00;;;;;26.79;41.98;100795.28;5015124;28;45399;-68
2023/08/05 11:08:35;;;;;;;;;3.00;1.00;;;;;26.80;42.10;100796.91;5018977;28;45551;-68
2023/08/05 11:11:11;;;;;;;;;4.00;3.00;;;;;26.80;41.23;100799.59;5035643;27;45428;-69
2023/08/05 11:13:38;;;;;;;;;5.00;2.00;;;;;26.80;41.36;100787.06;5035656;27;45424;-68
2023/08/05 11:16:09;;;;;;;;;2.33;2.33;;;;;26.80;41.37;100779.06;5035484;28;45382;-69
2023/08/05 11:18:35;;;;;;;;;3.00;3.00;;;;;26.79;41.30;100761.41;5034770;28;47088;-68
2023/08/05 11:21:03;;;;;;;;;2.00;1.00;;;;;26.80;41.69;100759.56;5035350;28;45456;-68